createdAt,value
2023-08-09T00:02:36.424Z,67.12
2023-08-09T00:07:39.371Z,59.12
2023-08-09T00:12:42.323Z,59.14
2023-08-09T00:17:46.089Z,65.38
2023-08-09T00:22:49.008Z,60.97
2023-08-09T00:27:52.010Z,56.44
2023-08-09T00:32:55.108Z,61.75
2023-08-09T00:37:57.987Z,65.69
2023-08-09T00:43:00.841Z,56.92
2023-08-09T00:48:04.042Z,59.43
2023-08-09T00:53:07.883Z,64.66
2023-08-09T00:58:10.807Z,58.42
2023-08-09T01:03:15.247Z,61.80
2023-08-09T01:08:37.833Z,64.35
2023-08-09T01:13:41.727Z,56.99
2023-08-09T01:18:45.081Z,58.93
2023-08-09T01:23:49.811Z,66.05
2023-08-09T01:28:52.667Z,58.11
2023-08-09T01:33:55.634Z,59.95
2023-08-09T01:39:01.661Z,66.69
2023-08-09T01:44:08.993Z,58.97
2023-08-09T01:49:17.187Z,57.63
2023-08-09T01:54:20.622Z,66.20
2023-08-09T01:59:24.451Z,60.31
2023-08-09T02:04:27.339Z,56.85
2023-08-09T02:09:30.228Z,63.08
2023-08-09T02:14:33.222Z,62.66
2023-08-09T02:19:36.375Z,55.97
2023-08-09T02:24:39.256Z,59.13
2023-08-09T02:29:42.172Z,66.27
2023-08-09T02:34:44.913Z,60.03
2023-08-09T02:39:47.761Z,57.12
2023-08-09T02:44:50.720Z,63.58
2023-08-09T02:49:53.464Z,63.98
2023-08-09T02:54:56.960Z,57.11
2023-08-09T02:59:59.841Z,59.49
2023-08-09T03:05:05.332Z,65.93
2023-08-09T03:10:09.028Z,58.43
2023-08-09T03:15:12.812Z,58.78
2023-08-09T03:20:15.762Z,65.07
2023-08-09T03:25:18.650Z,58.09
2023-08-09T03:30:21.480Z,59.26
2023-08-09T03:35:24.421Z,66.66
2023-08-09T03:40:27.317Z,59.90
2023-08-09T03:45:30.326Z,57.32
2023-08-09T03:50:33.061Z,62.62
2023-08-09T03:55:36.032Z,66.54
2023-08-09T04:00:38.819Z,57.69
2023-08-09T04:05:42.684Z,59.38
2023-08-09T04:10:45.523Z,65.26
2023-08-09T04:15:49.178Z,57.34
2023-08-09T04:20:52.274Z,58.73
2023-08-09T04:25:55.769Z,64.19
2023-08-09T04:30:58.645Z,57.48
2023-08-09T04:36:01.439Z,59.28
2023-08-09T04:41:05.221Z,63.77
2023-08-09T04:46:08.085Z,58.02
2023-08-09T04:51:11.231Z,59.91
2023-08-09T04:56:14.126Z,63.81
2023-08-09T05:01:16.944Z,57.74
2023-08-09T05:06:19.848Z,59.03
2023-08-09T05:11:22.762Z,65.02
2023-08-09T05:16:27.216Z,58.08
2023-08-09T05:21:30.190Z,61.99
2023-08-09T05:26:32.905Z,61.50
2023-08-09T05:31:35.827Z,56.65
2023-08-09T05:36:38.743Z,61.71
2023-08-09T05:41:41.516Z,59.10
2023-08-09T05:46:44.640Z,56.17
2023-08-09T05:51:47.659Z,60.67
2023-08-09T05:56:50.420Z,61.04
2023-08-09T06:01:53.497Z,55.75
2023-08-09T06:06:56.417Z,62.00
2023-08-09T06:11:59.411Z,57.33
2023-08-09T06:17:03.407Z,54.89
2023-08-09T06:22:06.795Z,59.03
2023-08-09T06:27:10.079Z,61.23
2023-08-09T06:32:13.026Z,61.19
2023-08-09T06:37:15.858Z,55.86
2023-08-09T06:42:18.712Z,57.69
2023-08-09T06:47:21.567Z,60.64
2023-08-09T06:52:24.591Z,57.25
2023-08-09T06:57:27.667Z,56.12
2023-08-09T07:02:31.346Z,57.88
2023-08-09T07:07:34.651Z,59.45
2023-08-09T07:12:37.744Z,62.11
2023-08-09T07:17:40.951Z,59.32
2023-08-09T07:22:45.719Z,57.06
2023-08-09T07:27:50.548Z,59.62
2023-08-09T07:32:56.588Z,61.02
2023-08-09T07:38:00.342Z,61.01
2023-08-09T07:43:03.986Z,64.41
2023-08-09T07:48:07.253Z,53.58
2023-08-09T07:53:10.233Z,56.68
2023-08-09T07:58:13.312Z,57.19
2023-08-09T08:03:16.273Z,57.10
2023-08-09T08:08:20.264Z,59.77
2023-08-09T08:13:23.374Z,58.77
2023-08-09T08:18:28.546Z,58.98
2023-08-09T08:23:33.524Z,58.18
2023-08-09T08:28:37.142Z,57.81
2023-08-09T08:33:46.725Z,57.43
2023-08-09T08:38:51.254Z,54.87
2023-08-09T08:43:55.280Z,54.43
2023-08-09T08:49:01.716Z,54.28
2023-08-09T08:54:05.118Z,52.91
2023-08-09T08:59:08.914Z,53.52
2023-08-09T09:04:11.858Z,54.44
2023-08-09T09:09:18.845Z,54.96
2023-08-09T09:14:22.809Z,55.44
2023-08-09T09:19:25.750Z,54.33
2023-08-09T09:24:30.615Z,54.14
2023-08-09T09:29:34.516Z,52.44
2023-08-09T09:34:39.601Z,51.06
2023-08-09T09:39:47.432Z,49.04
2023-08-09T09:44:50.341Z,48.02
2023-08-09T09:49:54.238Z,46.56
2023-08-09T09:54:58.012Z,47.06
2023-08-09T10:00:07.819Z,48.46
2023-08-09T10:05:12.441Z,49.77
2023-08-09T10:10:16.605Z,48.94
2023-08-09T10:15:24.927Z,47.39
2023-08-09T10:20:28.675Z,46.70
2023-08-09T10:25:46.190Z,47.22
2023-08-09T10:30:53.276Z,47.83
2023-08-09T10:35:56.260Z,48.27
2023-08-09T10:41:08.131Z,48.52
2023-08-09T10:46:24.118Z,48.64
2023-08-09T10:51:27.219Z,48.29
2023-08-09T10:56:42.269Z,48.55
2023-08-09T11:01:45.214Z,48.11
2023-08-09T11:06:50.361Z,46.60
2023-08-09T11:11:53.706Z,46.52
2023-08-09T11:17:02.443Z,46.81
2023-08-09T11:22:06.099Z,45.54
2023-08-09T11:27:24.396Z,45.71
2023-08-09T11:32:32.726Z,46.78
2023-08-09T11:37:35.808Z,48.31
2023-08-09T11:42:38.758Z,49.34
2023-08-09T11:47:49.977Z,49.12
2023-08-09T11:52:55.448Z,48.60
2023-08-09T11:57:58.818Z,48.13
2023-08-09T12:03:06.979Z,48.03
2023-08-09T12:08:15.569Z,46.98
2023-08-09T12:13:25.605Z,47.98
2023-08-09T12:18:29.722Z,48.32
2023-08-09T12:23:37.955Z,48.98
2023-08-09T12:28:42.086Z,48.34
2023-08-09T12:33:46.075Z,47.40
2023-08-09T12:38:50.863Z,47.44
2023-08-09T12:43:56.656Z,45.16
2023-08-09T12:49:00.119Z,41.98
2023-08-09T12:54:03.032Z,43.49
2023-08-09T12:59:07.101Z,40.90
2023-08-09T13:04:10.491Z,41.07
2023-08-09T13:09:13.450Z,41.41
2023-08-09T13:14:16.390Z,41.74
2023-08-09T13:19:19.220Z,42.34
2023-08-09T13:24:22.444Z,41.92
2023-08-09T13:29:25.296Z,40.73
2023-08-09T13:34:28.138Z,39.42
2023-08-09T13:39:31.683Z,39.28
2023-08-09T13:44:34.614Z,39.99
2023-08-09T13:49:37.841Z,41.31
2023-08-09T13:54:41.269Z,43.05
2023-08-09T13:59:44.852Z,44.25
2023-08-09T14:04:48.029Z,44.74
2023-08-09T14:09:52.096Z,45.68
2023-08-09T14:14:57.486Z,45.08
2023-08-09T14:20:04.766Z,45.27
2023-08-09T14:25:10.896Z,45.15
2023-08-09T14:30:16.914Z,45.88
2023-08-09T14:35:21.501Z,44.00
2023-08-09T14:40:28.059Z,42.86
2023-08-09T14:45:31.709Z,44.20
2023-08-09T14:50:35.288Z,43.75
2023-08-09T14:55:38.330Z,42.47
2023-08-09T15:00:42.118Z,41.68
2023-08-09T15:05:45.038Z,42.15
2023-08-09T15:10:47.894Z,41.63
2023-08-09T15:15:50.723Z,43.05
2023-08-09T15:20:53.643Z,46.25
2023-08-09T15:25:56.478Z,47.11
2023-08-09T15:31:00.407Z,47.76
2023-08-09T15:36:03.966Z,47.76
2023-08-09T15:41:06.872Z,47.87
2023-08-09T15:46:09.880Z,47.81
2023-08-09T15:51:14.509Z,48.55
2023-08-09T15:56:18.790Z,49.29
2023-08-09T16:01:24.807Z,49.17
2023-08-09T16:06:28.345Z,49.26
2023-08-09T16:11:40.013Z,48.45
2023-08-09T16:16:44.381Z,48.33
2023-08-09T16:22:02.609Z,47.65
2023-08-09T16:27:09.840Z,44.48
2023-08-09T16:32:13.148Z,40.00
2023-08-09T16:37:20.508Z,38.29
2023-08-09T16:42:26.616Z,36.87
2023-08-09T16:47:38.880Z,34.86
2023-08-09T16:52:47.545Z,33.21
2023-08-09T16:57:51.990Z,33.82
2023-08-09T17:02:55.834Z,34.87
2023-08-09T17:08:00.031Z,36.62
2023-08-09T17:13:04.962Z,38.30
2023-08-09T17:18:08.832Z,40.02
2023-08-09T17:23:16.608Z,41.76
2023-08-09T17:28:21.335Z,43.48
2023-08-09T17:33:25.602Z,44.99
2023-08-09T17:38:37.520Z,46.22
2023-08-09T17:43:40.947Z,47.85
2023-08-09T17:48:43.897Z,49.45
2023-08-09T17:53:46.761Z,51.13
2023-08-09T17:58:49.651Z,50.59
2023-08-09T18:03:52.867Z,51.49
2023-08-09T18:08:55.747Z,52.24
2023-08-09T18:13:59.342Z,52.72
2023-08-09T18:19:05.263Z,53.75
2023-08-09T18:24:08.328Z,55.06
2023-08-09T18:29:14.915Z,54.23
2023-08-09T18:34:17.876Z,54.93
2023-08-09T18:39:20.784Z,56.50
2023-08-09T18:44:23.651Z,57.51
2023-08-09T18:49:26.541Z,57.15
2023-08-09T18:54:31.117Z,58.97
2023-08-09T18:59:37.743Z,58.69
2023-08-09T19:04:44.282Z,59.19
2023-08-09T19:09:48.306Z,59.39
2023-08-09T19:14:52.249Z,59.37
2023-08-09T19:19:58.726Z,60.12
2023-08-09T19:25:04.960Z,60.29
2023-08-09T19:30:09.321Z,66.65
2023-08-09T19:35:16.829Z,65.87
2023-08-09T19:40:23.852Z,55.62
2023-08-09T19:45:31.500Z,56.51
2023-08-09T19:50:35.616Z,58.71
2023-08-09T19:55:38.461Z,59.79
2023-08-09T20:00:41.256Z,60.64
2023-08-09T20:05:44.149Z,60.02
2023-08-09T20:10:46.875Z,61.52
2023-08-09T20:15:49.735Z,60.55
2023-08-09T20:20:53.260Z,71.32
2023-08-09T20:25:56.211Z,63.97
2023-08-09T20:31:00.509Z,55.23
2023-08-09T20:36:03.660Z,56.94
2023-08-09T20:41:06.549Z,59.25
2023-08-09T20:46:09.384Z,60.85
2023-08-09T20:51:12.436Z,61.24
2023-08-09T20:56:15.268Z,69.86
2023-08-09T21:01:18.134Z,60.89
2023-08-09T21:06:21.880Z,54.96
2023-08-09T21:11:24.791Z,57.80
2023-08-09T21:16:28.013Z,60.73
2023-08-09T21:21:30.994Z,62.03
2023-08-09T21:26:33.812Z,69.09
2023-08-09T21:31:36.790Z,60.77
2023-08-09T21:36:39.646Z,56.00
2023-08-09T21:41:42.555Z,58.83
2023-08-09T21:46:45.416Z,60.41
2023-08-09T21:51:48.322Z,68.66
2023-08-09T21:56:51.326Z,60.37
2023-08-09T22:01:54.121Z,55.07
2023-08-09T22:06:57.413Z,59.10
2023-08-09T22:12:00.272Z,62.70
2023-08-09T22:17:03.118Z,68.13
2023-08-09T22:22:14.247Z,58.58
2023-08-09T22:27:17.632Z,55.94
2023-08-09T22:32:20.656Z,59.44
2023-08-09T22:37:23.550Z,60.67
2023-08-09T22:42:26.458Z,69.65
2023-08-09T22:47:29.385Z,60.48
2023-08-09T22:52:32.158Z,55.90
2023-08-09T22:57:36.276Z,56.49
2023-08-09T23:02:42.672Z,60.41
2023-08-09T23:07:45.933Z,69.51
2023-08-09T23:12:48.736Z,62.64
2023-08-09T23:17:52.133Z,56.61
2023-08-09T23:22:56.585Z,58.66
2023-08-09T23:27:59.437Z,61.41
2023-08-09T23:33:04.100Z,67.16
2023-08-09T23:38:07.356Z,58.47
2023-08-09T23:43:10.107Z,57.12
2023-08-09T23:48:13.085Z,59.03
2023-08-09T23:53:16.210Z,60.54
2023-08-09T23:58:19.139Z,59.89
